This is the latest recevied weather packets stored in our database for station/object DH4SBM. If no packets are shown the sender has not sent any weather packets the latest 10 day(s).
| Time | Temp. | Humidity | Pressure | Rain* | Wind** | Luminosity | Snow |
|---|---|---|---|---|---|---|---|
| 1777789538 | 14.44° C | 71% | 1017.5 hPa | 0 mm | - | 174 W/m² | - |
| 1777788938 | 13.89° C | 69% | 1017.3 hPa | 0 mm | - | 134 W/m² | - |
| 1777788338 | 13.33° C | 73% | 1017.3 hPa | 0 mm | - | 250 W/m² | - |
| 1777787738 | 12.22° C | 76% | 1017.2 hPa | 0 mm | - | 156 W/m² | - |
| 1777787138 | 11.67° C | 77% | 1017.2 hPa | 0 mm | - | 151 W/m² | - |
| 1777786538 | 11.11° C | 77% | 1017.2 hPa | 0 mm | - | 202 W/m² | - |
| 1777785938 | 10.56° C | 78% | 1017.2 hPa | 0 mm | - | 190 W/m² | - |
| 1777785338 | 10.56° C | 77% | 1017.1 hPa | 0 mm | - | 171 W/m² | - |
| 1777784738 | 10° C | 78% | 1017.1 hPa | 0 mm | - | 139 W/m² | - |
| 1777784138 | 10° C | 78% | 1017 hPa | 0 mm | - | 72 W/m² | - |
| 1777783538 | 10° C | 77% | 1017 hPa | 0 mm | - | 28 W/m² | - |
| 1777782937 | 10° C | 77% | 1017.1 hPa | 0 mm | - | 18 W/m² | - |
| 1777782337 | 10° C | 77% | 1017.1 hPa | 0 mm | - | 9 W/m² | - |
| 1777781737 | 10° C | 76% | 1017.1 hPa | 0 mm | - | 5 W/m² | - |
| 1777781137 | 10° C | 75% | 1017 hPa | 0 mm | - | 0 W/m² | - |
| 1777780538 | 10.56° C | 74% | 1017.1 hPa | 0 mm | - | 0 W/m² | - |
| 1777779938 | 10.56° C | 75% | 1017 hPa | 0 mm | - | 0 W/m² | - |
| 1777779338 | 10.56° C | 75% | 1017 hPa | 0 mm | - | 0 W/m² | - |
| 1777778738 | 10.56° C | 73% | 1017.1 hPa | 0 mm | - | 0 W/m² | - |
| 1777778138 | 10.56° C | 72% | 1017 hPa | 0 mm | - | 0 W/m² | - |
| 1777777538 | 11.11° C | 71% | 1017 hPa | 0 mm | - | 0 W/m² | - |
| 1777776938 | 11.11° C | 71% | 1017 hPa | 0 mm | - | 0 W/m² | - |
| 1777776338 | 11.11° C | 71% | 1017 hPa | 0 mm | - | 0 W/m² | - |
| 1777775738 | 11.11° C | 71% | 1017 hPa | 0 mm | - | 0 W/m² | - |
| 1777775138 | 11.11° C | 71% | 1017.2 hPa | 0 mm | - | 0 W/m² | - |
* Rain latest hour (hover to see other rain measurements)
** Current wind speed in m/s (hover to see current wind gust speed)